createdAt,value
2018-12-19T11:32:10.412Z,101096.48
2018-12-19T11:34:47.548Z,101104.02
2018-12-19T11:37:30.644Z,101104.34
2018-12-19T11:40:07.420Z,101091.37
2018-12-19T11:42:53.077Z,101091.93
2018-12-19T11:45:41.886Z,101084.68
2018-12-19T11:48:25.197Z,101091.21
2018-12-19T11:51:02.388Z,101081.45
2018-12-19T11:53:53.349Z,101083.31
2018-12-19T11:56:30.066Z,101085.15
2018-12-19T11:59:11.348Z,101088.41
2018-12-19T12:01:52.052Z,101078.26
2018-12-19T12:04:27.208Z,101071.22
2018-12-19T12:07:03.785Z,101078.03
2018-12-19T12:09:43.806Z,101078.06
2018-12-19T12:12:19.248Z,101083.53
2018-12-19T12:15:10.031Z,101071.37
2018-12-19T12:17:51.526Z,101076.81
2018-12-19T12:20:26.527Z,101075.67
2018-12-19T12:23:00.666Z,101078.47
2018-12-19T12:25:36.653Z,101075.45
2018-12-19T12:28:21.158Z,101079.47
2018-12-19T12:30:56.315Z,101070.84
2018-12-19T12:33:50.804Z,101068.55
2018-12-19T12:36:27.583Z,101067.77
2018-12-19T12:39:08.279Z,101070.19
2018-12-19T12:41:54.591Z,101061.67
2018-12-19T12:44:41.874Z,101066.79
2018-12-19T12:47:18.599Z,101070.10
2018-12-19T12:50:18.178Z,101065.22
2018-12-19T12:53:13.340Z,101062.00
2018-12-19T12:58:52.700Z,101072.41
2018-12-19T13:01:27.110Z,101072.22
2018-12-19T13:10:36.419Z,101058.07
2018-12-19T13:13:26.576Z,101062.80
2018-12-19T13:18:44.665Z,101062.26
2018-12-19T13:21:17.509Z,101061.70
2018-12-19T13:23:50.487Z,101058.73
2018-12-19T13:26:22.726Z,101062.28
2018-12-19T13:28:53.415Z,101058.62
2018-12-19T13:31:24.032Z,101060.84
2018-12-19T13:33:56.088Z,101060.73
2018-12-19T13:36:26.785Z,101050.97
2018-12-19T13:39:21.898Z,101052.02
2018-12-19T13:41:52.646Z,101053.97
2018-12-19T13:44:23.311Z,101053.66
2018-12-19T13:46:55.034Z,101055.41
2018-12-19T13:49:25.934Z,101053.30
2018-12-19T13:51:57.692Z,101055.45
2018-12-19T13:54:28.502Z,101059.48
2018-12-19T13:56:59.215Z,101055.34
2018-12-19T13:59:30.068Z,101063.73
2018-12-19T14:02:00.836Z,101053.11
2018-12-19T14:04:32.395Z,101060.05
2018-12-19T14:07:03.212Z,101069.20
2018-12-19T14:09:34.379Z,101059.48
2018-12-19T14:12:12.149Z,101068.62
2018-12-19T14:14:38.859Z,101066.36
2018-12-19T14:17:11.807Z,101073.61
2018-12-19T14:19:42.569Z,101070.83
2018-12-19T14:22:15.490Z,101070.14
2018-12-19T14:24:46.227Z,101069.00
2018-12-19T14:27:16.931Z,101069.36
2018-12-19T14:29:48.680Z,101069.30
2018-12-19T14:32:24.899Z,101068.69
2018-12-19T14:34:55.527Z,101073.92
2018-12-19T14:37:29.546Z,101076.50
2018-12-19T14:40:00.235Z,101066.94
2018-12-19T14:42:31.106Z,101071.09
2018-12-19T14:45:02.456Z,101069.80
2018-12-19T14:47:33.323Z,101063.80
2018-12-19T14:50:04.230Z,101069.55
2018-12-19T14:52:35.067Z,101066.80
2018-12-19T14:55:08.163Z,101069.94
2018-12-19T14:57:40.172Z,101069.45
2018-12-19T15:00:11.872Z,101069.89
2018-12-19T15:02:46.721Z,101066.41
2018-12-19T15:05:18.049Z,101069.34
2018-12-19T15:07:49.054Z,101072.81
2018-12-19T15:10:19.964Z,101085.84
2018-12-19T15:12:50.684Z,101078.30
2018-12-19T15:15:23.096Z,101086.73
2018-12-19T15:17:53.848Z,101080.64
2018-12-19T15:20:24.411Z,101083.34
2018-12-19T15:22:55.781Z,101091.21
2018-12-19T15:25:26.353Z,101090.03
2018-12-19T15:27:57.166Z,101093.78
2018-12-19T15:30:27.924Z,101094.44
2018-12-19T15:32:59.198Z,101092.30
2018-12-19T15:35:34.125Z,101101.33
2018-12-19T15:38:04.930Z,101094.52
2018-12-19T15:40:37.795Z,101091.40
2018-12-19T15:43:08.990Z,101097.06
2018-12-19T15:45:39.689Z,101100.35
2018-12-19T15:48:19.375Z,101103.91
2018-12-19T15:50:50.765Z,101107.84
2018-12-19T15:53:22.876Z,101107.61
2018-12-19T15:55:56.432Z,101103.23
2018-12-19T15:58:27.561Z,101101.20
2018-12-19T16:00:58.384Z,101104.18
2018-12-19T16:03:30.241Z,101102.70
2018-12-19T16:06:02.313Z,101100.08
2018-12-19T16:08:38.533Z,101101.41
2018-12-19T16:11:10.700Z,101099.88
2018-12-19T16:14:05.323Z,101102.38
2018-12-19T16:16:37.299Z,101108.88
2018-12-19T16:19:08.229Z,101105.94
2018-12-19T16:21:40.191Z,101103.71
2018-12-19T16:24:10.995Z,101112.00
2018-12-19T16:26:41.664Z,101104.95
2018-12-19T16:29:12.433Z,101110.31
2018-12-19T16:31:43.318Z,101111.87
2018-12-19T16:34:14.107Z,101113.48
2018-12-19T16:36:44.999Z,101100.11
2018-12-19T16:39:21.574Z,101102.19
2018-12-19T16:41:52.295Z,101100.66
2018-12-19T16:44:23.467Z,101096.41
2018-12-19T16:46:55.577Z,101096.19
2018-12-19T16:49:27.859Z,101094.09
2018-12-19T16:51:58.680Z,101096.70
2018-12-19T16:54:29.766Z,101098.73
2018-12-19T16:57:00.455Z,101090.53
2018-12-19T16:59:33.135Z,101101.77
2018-12-19T17:02:03.770Z,101108.80
2018-12-19T17:04:34.425Z,101103.55
2018-12-19T17:07:05.540Z,101105.64
2018-12-19T17:09:37.543Z,101110.73
2018-12-19T17:12:08.416Z,101108.21
2018-12-19T17:14:40.114Z,101108.58
2018-12-19T17:17:10.911Z,101113.47
2018-12-19T17:19:51.229Z,101110.72
2018-12-19T17:22:21.894Z,101115.34
2018-12-19T17:24:52.646Z,101117.15
2018-12-19T17:27:29.455Z,101108.91
2018-12-19T17:30:00.089Z,101116.56
2018-12-19T17:32:32.433Z,101107.47
2018-12-19T17:35:15.454Z,101106.18
2018-12-19T17:37:45.984Z,101095.02
2018-12-19T17:40:18.189Z,101096.62
2018-12-19T17:42:48.775Z,101091.50
2018-12-19T17:45:19.496Z,101090.55
2018-12-19T17:47:50.036Z,101087.23
2018-12-19T17:50:21.704Z,101081.67
2018-12-19T17:52:52.651Z,101090.48
2018-12-19T17:55:25.259Z,101088.95
2018-12-19T17:57:56.465Z,101084.78
2018-12-19T18:00:27.305Z,101080.11
2018-12-19T18:02:58.160Z,101079.25
2018-12-19T18:05:29.077Z,101082.72
2018-12-19T18:07:59.628Z,101077.78
2018-12-19T18:10:30.135Z,101084.61
2018-12-19T18:13:06.552Z,101084.05
2018-12-19T18:16:23.526Z,101079.33
2018-12-19T18:19:13.717Z,101079.80
2018-12-19T18:21:44.382Z,101084.91
2018-12-19T18:24:15.056Z,101087.91
2018-12-19T18:26:45.622Z,101081.74
2018-12-19T18:29:16.361Z,101073.42
2018-12-19T18:31:46.908Z,101082.30
2018-12-19T18:34:17.871Z,101093.79
2018-12-19T18:36:48.554Z,101086.58
2018-12-19T18:39:19.164Z,101085.09
2018-12-19T18:44:53.895Z,101101.64
2018-12-19T18:47:24.798Z,101098.89
2018-12-19T18:49:55.363Z,101095.25
2018-12-19T18:52:26.098Z,101101.04
2018-12-19T18:54:56.837Z,101097.22
2018-12-19T18:57:27.596Z,101097.18
2018-12-19T18:59:58.494Z,101096.88
2018-12-19T19:02:30.205Z,101094.77
2018-12-19T19:05:01.174Z,101091.98
2018-12-19T19:07:42.374Z,101088.34
2018-12-19T19:10:25.807Z,101099.80
2018-12-19T19:13:20.534Z,101098.98
2018-12-19T19:15:51.313Z,101092.29
2018-12-19T19:18:21.909Z,101104.39
2018-12-19T19:20:52.731Z,101103.91
2018-12-19T19:23:23.606Z,101103.95
2018-12-19T19:32:50.176Z,101105.98
2018-12-19T19:35:21.189Z,101113.14
2018-12-19T19:37:52.330Z,101107.17
2018-12-19T19:40:22.879Z,101106.36
2018-12-19T19:42:55.131Z,101105.67
2018-12-19T19:45:25.878Z,101098.94
2018-12-19T19:47:56.666Z,101107.86
2018-12-19T19:50:27.397Z,101110.00
2018-12-19T20:06:22.432Z,101102.37
2018-12-19T20:09:07.534Z,101104.95
2018-12-19T20:26:41.646Z,101097.87
2018-12-19T20:32:37.475Z,101093.48
2018-12-19T20:35:14.243Z,101094.39
2018-12-19T20:44:16.951Z,101095.07
2018-12-19T20:57:03.599Z,101107.56
2018-12-19T21:02:54.237Z,101098.68
2018-12-19T21:05:30.716Z,101095.08
2018-12-19T21:31:24.003Z,101120.34
2018-12-19T21:34:15.349Z,101120.30
2018-12-19T21:36:53.197Z,101120.35
2018-12-19T21:39:35.387Z,101115.93
2018-12-19T21:42:08.431Z,101116.91
2018-12-19T21:48:04.597Z,101120.01
2018-12-19T21:50:48.051Z,101126.53
2018-12-19T21:53:41.112Z,101116.31
2018-12-19T21:56:24.206Z,101113.31
2018-12-19T22:05:40.907Z,101123.83
2018-12-19T22:08:12.717Z,101127.38
2018-12-19T22:10:45.015Z,101122.06
2018-12-19T22:13:15.941Z,101116.36
2018-12-19T22:15:47.009Z,101121.29
2018-12-19T22:18:22.752Z,101118.63
2018-12-19T22:20:53.576Z,101119.11
2018-12-19T22:23:44.849Z,101123.44
2018-12-19T22:26:24.536Z,101121.25
2018-12-19T22:28:56.588Z,101123.91
2018-12-19T22:37:48.547Z,101121.08
2018-12-19T22:40:19.995Z,101116.58
2018-12-19T22:42:51.047Z,101120.61
2018-12-19T22:45:21.795Z,101115.63
2018-12-19T22:47:53.153Z,101112.50
2018-12-19T22:50:24.020Z,101111.34
2018-12-19T22:52:56.632Z,101111.34
2018-12-19T22:55:27.255Z,101109.16
2018-12-19T22:57:57.964Z,101098.13
2018-12-19T23:00:31.850Z,101106.53
2018-12-19T23:03:08.653Z,101109.23
2018-12-19T23:05:44.457Z,101110.09
2018-12-19T23:08:15.340Z,101113.23
2018-12-19T23:10:46.233Z,101103.92
2018-12-19T23:13:17.580Z,101112.50
2018-12-19T23:15:50.252Z,101109.36
2018-12-19T23:18:27.841Z,101104.05
2018-12-19T23:21:03.761Z,101104.13
2018-12-19T23:23:39.896Z,101098.08
2018-12-19T23:26:10.079Z,101103.53
2018-12-19T23:28:42.665Z,101094.69
2018-12-19T23:31:13.599Z,101099.38
2018-12-19T23:33:44.465Z,101106.80
2018-12-19T23:36:15.257Z,101099.84
2018-12-19T23:38:45.879Z,101097.01
2018-12-19T23:41:16.680Z,101091.73
2018-12-19T23:43:47.465Z,101094.18
2018-12-19T23:46:18.119Z,101100.88
2018-12-19T23:49:05.721Z,101089.33
2018-12-19T23:51:36.440Z,101093.80
2018-12-19T23:54:07.175Z,101091.98
2018-12-19T23:56:37.743Z,101089.84
2018-12-19T23:59:08.852Z,101091.56
